Weather observations for the past three days for
Galliano, South Lafourche Airport
Imperial (Metric)
Date Time (cdt) Wind (mph) Vis. (mi.) Weather Sky Cond. Temperature (ºF) Relative Humidity Wind Chill (°F) Heat Index (°F) Pressure Precipitation (in)
Air Dwpt 6 hour altimeter (in) sea level (mb) 1 hr 3 hr 6 hr
Max. Min.
07 20:35 NE 3 10.00 Overcast OVC021 73.4 69.8 89% 29.95 0.0
07 20:15 N 5 10.00 Overcast OVC019 73 69.8 90% 29.95 0.0
07 19:55 N 6 10.00 Overcast BKN007 OVC019 72.9 70 91% 29.94 0.0
07 19:35 N 5 5.00 Fog/Mist BKN005 OVC019 72.9 70.2 91% 29.94 0.0
07 19:15 N 3 4.00 Fog/Mist BKN005 BKN011 OVC019 72.7 70 91% 29.93 0.0
07 18:55 NE 5 3.00 Light Drizzle BKN005 OVC009 72.7 70 76.6 72.7 91% 29.93 0.0
07 18:35 N 3 3.00 Drizzle SCT007 OVC015 72.7 69.8 91% 29.94 0.0
07 18:15 Calm 5.00 Rain SCT009 OVC015 72.7 69.4 90% 29.94 0.0
07 17:55 N 6 10.00 Overcast OVC009 73.4 68.7 85% 29.94 0.0
07 17:35 N 5 10.00 Overcast OVC011 73.6 68.5 84% 29.93 0.0
07 17:15 N 7 10.00 Overcast OVC011 74.3 68.7 83% 29.93 0.0
07 16:55 N 8 10.00 Overcast OVC009 73.8 68.5 84% 29.93 0.0
07 16:35 N 10 10.00 Overcast OVC009 73.4 68.5 85% 29.93 0.0
07 16:15 N 8 10.00 Overcast OVC009 74.3 68.9 83% 29.93 0.0
07 15:55 N 7 10.00 Overcast OVC009 73.9 68.9 84% 29.93 0.0
07 15:35 N 8 10.00 Overcast OVC009 74.1 68.9 84% 29.93 0.0
07 15:15 N 7 10.00 Overcast OVC007 74.5 69.6 85% 29.93 0.0
07 14:55 N 6 10.00 Overcast BKN007 OVC014 75 70 84% 75 29.93 0.0
07 14:35 N 6 7.00 Overcast BKN007 OVC014 75.2 70.3 85% 75 29.93 0.0
07 14:15 N 6 5.00 Fog/Mist OVC007 74.3 70.2 87% 29.94 0.0
07 13:55 N 7 4.00 Fog/Mist OVC007 74.1 70.2 88% 29.95 0.0
07 13:35 N 7 5.00 Fog/Mist OVC007 75.2 70.5 85% 75 29.95 0.0
07 13:15 N 8 7.00 Overcast OVC009 75.7 70.7 84% 76 29.95 0.0
07 12:55 N 6 10.00 Overcast OVC009 76.1 70.9 81.7 75.2 84% 77 29.95 0.0
07 12:35 N 7 7.00 Overcast BKN007 OVC014 75.6 71.1 86% 76 29.96 0.0
07 12:15 N 8 10.00 Overcast SCT007 OVC014 75.6 71.6 88% 75 29.96 0.0
07 11:55 N 7 10.00 Overcast SCT006 OVC011 80.2 73.2 79% 85 29.96 0.0
07 11:35 SW 9 10.00 Overcast OVC011 80.2 74.1 82% 85 29.96 0.0
07 11:15 SW 8 10.00 Overcast OVC011 80.4 74.3 82% 85 29.96 0.0
07 10:55 SW 12 10.00 Overcast OVC011 81.7 74.3 78% 88 29.96 0.0
07 10:35 SW 12 10.00 Overcast BKN011 OVC042 81.1 74.5 80% 87 29.96 0.0
07 10:15 SW 10 10.00 Overcast BKN009 BKN016 OVC042 80.8 74.3 81% 86 29.96 0.0
07 09:55 SW 9 10.00 Overcast OVC009 80.1 74.3 83% 85 29.96 0.0
07 09:35 SW 9 10.00 Overcast OVC011 79.7 73.9 83% 84 29.96 0.0
07 09:15 SW 10 10.00 Overcast BKN011 OVC014 79.7 73.9 83% 84 29.96 0.0
07 08:55 SW 9 10.00 NULL NULL 79.7 73.8 82% 84 29.96 0.0
07 08:35 SW 9 10.00 NULL NULL 79 73.4 83% 82 29.96 0.0
07 08:15 SW 10 10.00 NULL NULL 79.7 73.9 83% 84 29.95 0.0
07 07:55 SW 12 10.00 NULL NULL 78.4 73.4 85% 81 29.94 0.0
07 07:35 SW 9 10.00 NULL NULL 78.1 73.4 86% 81 29.95 0.0
07 07:15 SW 8 10.00 NULL NULL 77.9 73.4 86% 80 29.94 0.0
07 06:55 SW 8 10.00 NULL NULL 77.9 73.4 78.1 77.5 86% 80 29.93 0.0
07 06:35 SW 8 10.00 NULL NULL 77.9 73 85% 80 29.92 0.0
07 06:15 SW 9 10.00 NULL NULL 77.9 73 85% 80 29.91 0.0
07 05:55 SW 8 10.00 NULL NULL 77.5 73 86% 79 29.91 0.0
07 05:35 SW 9 10.00 NULL NULL 77.5 72.9 86% 79 29.9 0.0
07 05:15 SW 12 10.00 NULL NULL 77.7 73 86% 80 29.9 0.0
07 04:55 SW 12 10.00 NULL NULL 77.7 73 86% 80 29.89 0.0
07 04:35 SW 12 10.00 NULL NULL 77.9 73.4 86% 80 29.88 0.0
07 04:15 SW 15 10.00 NULL NULL 77.7 73.2 86% 80 29.88 0.0
07 03:55 SW 10 G 20 10.00 NULL NULL 77.9 73.4 86% 80 29.88 0.0
07 03:35 S 15 G 20 10.00 NULL NULL 77.9 73.4 86% 80 29.88 0.0
07 03:15 SW 12 10.00 NULL NULL 77.9 73.4 86% 80 29.89 0.0
07 02:55 S 13 10.00 NULL NULL 77.9 73.6 87% 80 29.89 0.0
07 02:35 SW 10 10.00 NULL NULL 77.9 73.6 87% 80 29.9 0.0
07 02:15 S 14 G 17 10.00 NULL NULL 77.9 73.6 87% 80 29.9 0.0
07 01:55 S 12 10.00 NULL NULL 77.9 73.6 87% 80 29.9 0.0
07 01:35 S 12 10.00 NULL NULL 77.9 73.8 87% 80 29.9 0.0
07 01:15 S 12 10.00 NULL NULL 77.9 73.8 87% 80 29.9 0.0
07 00:55 S 15 G 20 10.00 NULL NULL 77.9 73.6 80.1 77.9 87% 80 29.9 0.0
07 00:35 S 15 10.00 NULL NULL 78.1 73.9 87% 81 29.9 0.0
07 00:15 S 12 10.00 NULL NULL 78.1 73.9 87% 81 29.9 0.0
06 23:55 S 13 G 16 10.00 NULL NULL 77.9 73.9 88% 80 29.9 0.0
06 23:35 S 12 G 18 10.00 NULL NULL 78.1 73.9 87% 81 29.9 0.0
06 23:15 S 10 G 20 10.00 NULL NULL 78.3 74.1 87% 81 29.91 0.0
06 22:55 S 12 G 17 10.00 NULL NULL 78.8 74.3 86% 82 29.91 0.0
06 22:15 S 12 10.00 NULL NULL 78.8 73.9 85% 82 29.91 0.0
06 21:55 S 12 G 16 10.00 NULL NULL 78.8 73.9 85% 82 29.91 0.0
06 21:35 S 10 G 16 10.00 NULL NULL 78.8 73.9 85% 82 29.9 0.0
06 21:15 S 10 G 17 10.00 NULL NULL 78.8 74.1 86% 82 29.9 0.0
06 20:55 S 9 G 17 10.00 NULL NULL 79 73.9 85% 83 29.89 0.0
06 20:35 S 13 10.00 NULL NULL 79.2 73.9 84% 83 29.89 0.0
06 20:15 S 13 G 20 10.00 NULL NULL 79.2 73.8 84% 83 29.88 0.0
06 19:55 S 13 G 17 10.00 NULL NULL 79.3 73.8 83% 83 29.88 0.0
06 19:35 S 13 10.00 NULL NULL 79.7 73.6 82% 84 29.87 0.0
06 19:15 S 15 G 18 10.00 NULL NULL 79.9 73.8 82% 84 29.87 0.0
06 18:55 S 14 G 20 10.00 NULL NULL 80.1 73.4 85.3 80.1 80% 84 29.87 0.0
06 18:35 S 14 10.00 NULL NULL 80.4 73.6 80% 85 29.87 0.0
06 17:55 S 10 G 16 10.00 NULL NULL 81.1 73.9 79% 87 29.88 0.0
06 17:35 S 12 10.00 NULL NULL 81.5 73.8 77% 87 29.88 0.0
06 17:15 S 13 G 17 10.00 NULL NULL 82.6 73.9 75% 89 29.88 0.0
06 16:35 S 8 G 18 10.00 NULL NULL 82.8 74.7 77% 90 29.88 0.0
06 16:15 S 13 10.00 NULL NULL 82.6 73.4 74% 89 29.89 0.0
06 15:55 S 13 G 17 10.00 NULL NULL 82.9 73.6 73% 89 29.9 0.0
06 15:35 S 13 G 20 10.00 NULL NULL 83.3 73.4 72% 90 29.9 0.0
06 15:15 S 14 10.00 NULL NULL 83.3 73.4 72% 90 29.91 0.0
06 14:55 S 14 G 17 10.00 NULL NULL 84.2 73.9 71% 91 29.92 0.0
06 14:35 S 14 G 20 10.00 NULL NULL 84.4 74.3 72% 92 29.92 0.0
06 14:15 S 17 G 21 10.00 NULL NULL 83.7 73.8 72% 90 29.94 0.0
06 13:55 S 16 G 22 10.00 NULL NULL 84 73.4 71% 91 29.94 0.0
06 13:35 S 13 10.00 NULL NULL 84.6 74.3 71% 92 29.94 0.0
06 13:15 S 14 G 21 10.00 NULL NULL 85.1 73.6 69% 92 29.95 0.0
06 12:55 S 15 G 20 10.00 NULL NULL 85.3 74.1 85.5 76.1 69% 93 29.95 0.0
06 12:35 S 14 G 18 10.00 NULL NULL 84.2 73.8 71% 91 29.96 0.0
06 12:15 S 14 G 18 10.00 NULL NULL 83.3 73.6 73% 90 29.95 0.0
06 11:55 S 14 G 18 10.00 NULL NULL 83.5 73.6 72% 90 29.95 0.0
06 11:35 S 14 10.00 NULL NULL 83.8 74.5 74% 91 29.95 0.0
06 11:15 S 13 G 20 10.00 NULL NULL 82.9 75.2 78% 90 29.94 0.0
06 10:55 S 15 G 20 10.00 NULL NULL 81.1 74.1 79% 87 29.95 0.0
06 10:35 S 14 10.00 NULL NULL 81.5 74.3 79% 87 29.95 0.0
06 10:15 S 15 G 21 10.00 NULL NULL 81.3 73.8 78% 87 29.94 0.0
06 09:55 S 10 G 16 10.00 NULL NULL 81.5 74.1 78% 87 29.94 0.0
06 09:35 S 10 10.00 NULL NULL 80.8 74.3 81% 86 29.93 0.0
06 09:15 S 8 10.00 NULL NULL 79.7 73.9 83% 84 29.93 0.0
06 08:55 SE 5 10.00 NULL NULL 78.8 73.6 84% 82 29.93 0.0
06 08:35 SE 5 10.00 NULL NULL 77.9 73.2 86% 80 29.93 0.0
06 08:15 SE 6 10.00 NULL NULL 77.2 72.9 87% 79 29.93 0.0
06 07:55 S 6 10.00 NULL NULL 77 72.9 87% 78 29.93 0.0
06 07:35 S 6 10.00 NULL NULL 76.3 72.5 88% 77 29.92 0.0
06 06:55 S 6 10.00 NULL NULL 76.1 72.1 76.1 73.8 88% 76 29.91 0.0
06 06:35 S 6 10.00 NULL NULL 75.7 72 88% 76 29.9 0.0
06 06:15 S 6 10.00 NULL NULL 75.7 72 88% 76 29.89 0.0
06 05:55 S 6 10.00 Overcast SCT013 SCT017 OVC026 75.6 71.6 88% 75 29.89 0.0
06 05:35 SE 6 10.00 Overcast SCT013 OVC017 75.6 71.6 88% 75 29.89 0.0
06 05:15 S 6 10.00 Overcast OVC013 75.7 71.6 87% 76 29.89 0.0
06 04:55 SE 5 10.00 Overcast OVC011 75.6 71.2 87% 76 29.89 0.0
06 04:35 S 6 10.00 Overcast OVC011 75.4 71.1 87% 75 29.88 0.0
06 04:15 S 6 10.00 Overcast OVC011 75.4 70.9 86% 75 29.89 0.0
06 03:55 S 6 10.00 Overcast OVC013 75.4 70.7 85% 75 29.89 0.0
06 03:35 S 6 10.00 Overcast OVC013 75.2 70.7 86% 75 29.88 0.0
06 03:15 S 8 10.00 Overcast OVC010 75.2 70.7 86% 75 29.88 0.0
06 02:55 S 8 10.00 Overcast OVC012 74.7 70.3 86% 29.88 0.0
06 02:35 S 7 10.00 Overcast BKN012 OVC026 74.5 69.8 85% 29.88 0.0
06 02:15 SE 7 10.00 Overcast SCT012 OVC026 74.3 69.8 86% 29.89 0.0
06 01:55 SE 6 10.00 Mostly Cloudy BKN014 74.3 69.1 84% 29.89 0.0
06 01:35 S 8 10.00 Partly Cloudy SCT014 SCT028 74.3 68.9 83% 29.89 0.0
06 01:15 SE 7 10.00 Fair CLR 73.8 68.4 83% 29.9 0.0
06 00:55 SE 9 10.00 Partly Cloudy SCT027 73.9 68.4 76.5 72.3 83% 29.9 0.0
06 00:35 SE 8 10.00 Partly Cloudy SCT013 SCT027 74.3 68.9 83% 29.9 0.0
06 00:15 SE 8 10.00 Overcast OVC013 74.3 68.9 83% 29.91 0.0
05 23:55 SE 7 10.00 Mostly Cloudy BKN013 74.3 68.9 83% 29.91 0.0
05 23:35 SE 6 10.00 Mostly Cloudy BKN013 74.3 68.9 83% 29.91 0.0
05 23:15 SE 9 10.00 Mostly Cloudy BKN013 74.3 68.7 83% 29.92 0.0
05 22:55 S 9 10.00 Overcast OVC013 74.3 68.5 82% 29.92 0.0
05 22:35 SE 7 10.00 Overcast OVC013 74.5 68.4 81% 29.92 0.0
05 22:15 SE 6 10.00 Mostly Cloudy BKN015 BKN019 74.3 68.4 82% 29.92 0.0
05 21:55 SE 6 10.00 Mostly Cloudy BKN015 BKN019 74.5 68.7 82% 29.91 0.0
05 21:35 SE 7 10.00 Mostly Cloudy BKN015 BKN019 74.3 68.4 82% 29.91 0.0
05 21:15 S 6 10.00 Partly Cloudy SCT017 73.6 67.6 82% 29.91 0.0
05 20:55 S 5 10.00 Partly Cloudy SCT017 73.6 67.3 81% 29.91 0.0
05 20:35 S 5 10.00 Partly Cloudy SCT016 73 67.6 83% 29.9 0.0
05 20:15 S 3 10.00 Partly Cloudy SCT016 72.3 67.1 84% 29.9 0.0
05 19:55 S 3 10.00 Fair CLR 72.9 67.1 82% 29.9 0.0
05 19:35 S 5 10.00 Fair CLR 73.8 67.1 80% 29.89 0.0
05 19:15 S 6 10.00 Fair CLR 75.6 67.1 75% 77 29.89 0.0
05 18:55 S 10 10.00 Fair CLR 76.5 67.5 81.1 76.1 74% 78 29.9 0.0
05 18:35 S 8 10.00 Partly Cloudy SCT035 76.6 67.3 73% 78 29.9 0.0
05 18:15 S 10 10.00 Overcast OVC035 77 67.5 73% 79 29.9 0.0
05 17:55 S 10 10.00 Overcast SCT019 OVC035 77 67.5 73% 79 29.9 0.0
05 17:35 S 13 10.00 Overcast SCT019 BKN025 OVC035 77 67.8 73% 79 29.9 0.0
05 17:15 S 7 10.00 Overcast SCT019 OVC025 76.3 68 76% 78 29.9 0.0
05 16:55 S 9 10.00 Mostly Cloudy BKN027 BKN034 77.4 66.9 70% 79 29.91 0.0
05 16:35 S 13 10.00 Mostly Cloudy SCT025 BKN036 79.5 67.3 66% 82 29.91 0.0
05 16:15 S 14 10.00 Partly Cloudy SCT025 SCT036 79 67.5 68% 81 29.91 0.0
05 15:55 S 13 10.00 Partly Cloudy SCT023 SCT070 79.9 68 67% 82 29.91 0.0
05 15:35 S 14 G 20 10.00 Partly Cloudy SCT023 80.1 67.6 66% 83 29.91 0.0
05 15:15 S 16 G 21 10.00 Partly Cloudy SCT025 SCT029 79.9 67.3 66% 82 29.92 0.0
05 14:55 S 12 G 18 10.00 Mostly Cloudy BKN025 80.8 67.1 63% 83 29.92 0.0
05 14:35 S 12 10.00 Overcast OVC025 80.1 67.3 65% 82 29.93 0.0
05 14:15 S 9 10.00 Overcast OVC023 78.8 67.1 67% 81 29.93 0.0
05 13:55 S 10 G 17 10.00 Overcast OVC023 79.5 67.5 67% 82 29.94 0.0
05 13:35 S 12 10.00 Overcast OVC023 78.8 67.1 67% 81 29.94 0.0
05 13:15 S 13 10.00 Overcast OVC023 79.7 67.3 66% 82 29.94 0.0
05 12:55 S 10 10.00 Mostly Cloudy BKN023 79.5 67.3 80.1 64 66% 82 29.94 0.0
05 12:35 S 13 G 16 10.00 Partly Cloudy SCT023 79.9 66.9 65% 82 29.95 0.0
05 11:55 S 12 G 16 10.00 Partly Cloudy SCT025 78.3 65.7 65% 80 29.95 0.0
05 11:35 SW 10 10.00 Mostly Cloudy BKN025 79.5 66.4 64% 82 29.95 0.0
05 11:15 S 12 G 17 10.00 Mostly Cloudy BKN025 79.3 65.8 63% 81 29.95 0.0
05 10:55 S 10 10.00 Partly Cloudy SCT025 78.1 64.9 64% 80 29.95 0.0
05 10:35 S 10 10.00 Partly Cloudy SCT025 77.5 64.6 64% 79 29.95 0.0
05 10:15 SW 10 G 17 10.00 Partly Cloudy SCT025 77.7 64.6 64% 80 29.95 0.0
05 09:55 S 14 10.00 Partly Cloudy SCT025 77.2 64 64% 79 29.94 0.0
05 09:35 S 14 G 17 10.00 Fair CLR 76.8 63.3 63% 79 29.95 0.0
05 09:15 S 14 10.00 Fair CLR 76.6 62.6 62% 78 29.95 0.0
05 08:55 S 13 10.00 Fair CLR 75.7 62.4 63% 78 29.94 0.0
05 08:35 S 12 10.00 Fair CLR 74.5 62.8 67% 29.94 0.0
05 08:15 S 8 10.00 Fair CLR 73.6 63.5 71% 29.93 0.0
05 07:35 S 3 10.00 Fair CLR 70.9 64.9 82% 29.92 0.0
05 07:15 S 3 10.00 Fair CLR 68.2 63 84% 29.92 0.0
05 06:55 S 3 10.00 NULL NULL 63.3 60.4 63.5 57.9 90% 29.92 0.0
05 06:35 S 3 10.00 NULL NULL 62.1 59 90% 29.92 0.0
05 06:15 Calm 10.00 NULL NULL 62.1 58.3 88% 29.91 0.0
05 05:55 SE 5 10.00 Partly Cloudy SCT031 61.5 58.8 91% 29.92 0.0
05 05:35 Calm 10.00 Mostly Cloudy BKN033 59.4 56.7 91% 29.92 0.0
05 05:15 Calm 10.00 Partly Cloudy SCT033 60.1 57.6 91% 29.92 0.0
05 04:55 Calm 10.00 Mostly Cloudy BKN033 59.9 57 90% 29.91 0.0
05 04:35 Calm 10.00 Fair CLR 58.3 55.8 91% 29.91 0.0
05 04:15 Calm 10.00 Fair CLR 58.3 55.8 91% 29.92 0.0
05 03:55 Calm 10.00 Fair CLR 58.3 55.6 91% 29.91 0.0
05 03:35 Calm 10.00 Fair CLR 59.5 56.5 90% 29.92 0.0
05 03:15 Calm 10.00 Fair CLR 61 56.5 85% 29.91 0.0
05 02:55 SE 3 10.00 Fair CLR 62.8 58.3 85% 29.91 0.0
05 02:35 SE 3 10.00 Fair CLR 63 58.6 86% 29.91 0.0
05 02:15 SE 3 10.00 Fair CLR 58.3 55.4 90% 29.93 0.0
05 01:55 SE 3 10.00 Fair CLR 58.3 55.4 90% 29.94 0.0
05 01:35 Calm 10.00 Fair CLR 59.2 56.1 90% 29.95 0.0
05 01:15 Calm 10.00 Fair CLR 59.2 55.9 89% 29.95 0.0
05 00:55 Calm 10.00 Fair CLR 59.5 55.9 71.2 58.1 88% 29.95 0.0
05 00:35 Calm 10.00 Fair CLR 59.2 55.9 89% 29.94 0.0
05 00:15 Calm 10.00 Fair CLR 58.1 54.9 89% 29.94 0.0
04 23:55 Calm 10.00 Fair CLR 61.3 56.3 84% 29.95 0.0
04 23:35 Calm 10.00 Fair CLR 58.5 54.9 88% 29.95 0.0
04 23:15 Calm 10.00 Fair CLR 59 54.5 85% 29.96 0.0
04 22:55 Calm 10.00 Fair CLR 59.7 54.1 82% 29.96 0.0
04 22:35 Calm 10.00 Fair CLR 61.3 54.9 79% 29.96 0.0
04 22:15 SE 3 10.00 Fair CLR 58.3 54.1 86% 29.96 0.0
04 21:55 Calm 10.00 Fair CLR 59.2 54.3 84% 29.97 0.0
04 21:35 Calm 10.00 Fair CLR 62.4 53.8 74% 29.97 0.0
04 21:15 SE 3 10.00 Fair CLR 63.1 54 72% 29.96 0.0
04 20:55 Calm 10.00 Fair CLR 61 54.3 79% 29.96 0.0
Date Time (cdt) Wind (mph) Vis. (mi.) Weather Sky Cond. Air Dwpt Max. Min. Relative Humidity Wind Chill (°F) Heat Index (°F) altimeter (in) sea level (mb) 1 hr 3 hr 6 hr
6 hour
Temperature (ºF) Pressure Precipitation (in)